Collins, Ohio
Current Conditions -  °F | °C
As of 6:07 PM on Friday 28 Nov 2014 (Local Time) from KLPR Reporting Station
Light Snow Light Snow  
Wind Chill: 18°   Ceiling: 2500
Heat Index: 26°   Visibility: 2.5mi
Dew Point: 21°   Wind: 7mph
Humidity: 81%   Direction: 180°S
Pressure: 30.2"   Gusts: NA
Location:  41.26°N, 82.49°W
Report Text: KLPR 282307Z AUTO 18006KT 2 1/2SM -SN BKN025 BKN070 OVC090 M03/M06 A3020 RMK AO2 P0001 T10331061 TSNO
Loading
Personal Weather Stations






























Interactive Weather Map New forecast layout! Learn more

10-Day Weather Forecast

Advertisements
Track Severe Weather on mobile